• Join FlightAware (Why Join?)
  • Login
  • US Flag 
01:35AM EDT


 

Airport Tracker/Info


-or-


 

Live Flight TrackerFlight Track Log ✈ AAL1491 ✈ 20-May-2013 ✈ KDCA - KDFW

Flight Track Log - Related Links

Times and Time Zones

All times are in EDT time to prevent confusion due to time zone crossing. See the AAL1491 flight status page for this flight to view local times or setup timezone preferences in your user account.

Time Position Orientation Groundspeed Altitude Reporting Facility
EDT Latitude Longitude Course Direction KTS MPH feet Rate Location/Type
11:25AM 38.8770 -77.0500 315° West 176 203 1,200  Level FlightAware
11:26AM 38.9000 -77.0780 317° Northwest 205 236 2,200 1,800 Climbing FlightAware
11:26AM 38.9180 -77.1030 313° West 242 278 2,900 1,980 Climbing FlightAware
11:26AM 38.9340 -77.1220 317° Northwest 259 298 3,700 3,060 Climbing FlightAware
11:27AM 38.9590 -77.1480 321° Northwest 268 308 5,200 3,360 Climbing FlightAware
11:27AM 38.9800 -77.1740 316° Northwest 271 312 6,500 3,000 Climbing FlightAware
11:27AM 38.9840 -77.1950 284° West 271 312 7,200 3,420 Climbing FlightAware
11:28AM 38.9770 -77.2540 261° West 280 322 9,100 3,600 Climbing FlightAware
11:28AM 38.9740 -77.2770 260° West 281 323 9,900 1,920 Climbing FlightAware
11:29AM 38.9660 -77.3480 262° West 327 376 10,900 1,860 Climbing FlightAware
11:29AM 38.9560 -77.4300 261° West 356 410 12,400 2,880 Climbing FlightAware
11:30AM 38.9440 -77.5160 260° West 353 406 14,800 3,300 Climbing FlightAware
11:31AM 38.9340 -77.5960 261° West 355 409 16,800 2,760 Climbing FlightAware
11:31AM 38.9230 -77.6830 261° West 364 419 18,500 2,400 Climbing FlightAware
11:32AM 38.9110 -77.7690 260° West 371 427 20,000 2,160 Climbing FlightAware
11:33AM 38.8990 -77.8690 261° West 383 441 21,600 2,040 Climbing FlightAware
11:33AM 38.8900 -77.9370 260° West 389 448 22,600 1,920 Climbing FlightAware
11:34AM 38.8760 -78.0390 260° West 397 457 24,000 1,860 Climbing FlightAware
11:35AM 38.8650 -78.1260 261° West 404 465 25,300 1,800 Climbing FlightAware
11:35AM 38.8540 -78.2240 262° West 411 473 26,400 1,500 Climbing FlightAware
11:36AM 38.8530 -78.3410 269° West 423 487 27,500 960 Climbing FlightAware
11:37AM 38.8520 -78.4410 269° West 447 514 27,800 720 Climbing FlightAware
11:37AM 38.8510 -78.5330 269° West 455 524 28,400 1,080 Climbing FlightAware
11:38AM 38.8490 -78.6510 269° West 461 531 29,300 1,380 Climbing FlightAware
11:39AM 38.8470 -78.7760 269° West 460 529 30,500 1,500 Climbing FlightAware
11:40AM 38.8460 -78.8830 269° West 458 527 31,500 1,380 Climbing FlightAware
11:40AM 38.8430 -79.0040 268° West 457 526 32,500 1,320 Climbing FlightAware
11:41AM 38.8410 -79.1120 269° West 456 525 33,400 1,440 Climbing FlightAware
11:42AM 38.8400 -79.2430 269° West 451 519 34,600 1,500 Climbing FlightAware
11:42AM 38.8390 -79.3070 269° West 446 513 35,200 1,320 Climbing FlightAware
11:43AM 38.8360 -79.4260 268° West 441 507 36,200 1,080 Climbing FlightAware
11:44AM 38.8340 -79.5310 269° West 442 509 36,800 780 Climbing FlightAware
11:44AM 38.8320 -79.6340 269° West 443 510 37,300 720 Climbing FlightAware
11:45AM 38.8290 -79.7390 268° West 443 510 37,800 480 Climbing FlightAware
11:46AM 38.8190 -79.8380 263° West 439 505 38,000 120 Climbing FlightAware
11:46AM 38.7910 -79.9530 253° West 440 506 38,000  Level FlightAware
11:47AM 38.7660 -80.0520 252° West 441 507 38,000  Level FlightAware
11:48AM 38.7470 -80.1270 252° West 443 510 38,000  Level FlightAware
11:48AM 38.7250 -80.2160 252° West 443 510 38,000  Level FlightAware
11:49AM 38.6960 -80.3270 252° West 446 513 38,000  Level FlightAware
11:50AM 38.6700 -80.4270 252° West 446 513 38,000  Level FlightAware
11:50AM 38.6450 -80.5150 250° West 447 514 38,000  Level FlightAware
11:51AM 38.6150 -80.6250 251° West 447 514 38,000  Level FlightAware
11:51AM 38.5900 -80.7130 250° West 447 514 38,000  Level FlightAware
11:52AM 38.5600 -80.8220 251° West 445 512 38,000  Level FlightAware
11:53AM 38.5320 -80.9220 250° West 445 512 38,000  Level FlightAware
11:54AM 38.5050 -81.0200 251° West 445 512 38,000  Level FlightAware
11:54AM 38.4720 -81.1350 250° West 447 514 38,000  Level FlightAware
11:55AM 38.4440 -81.2350 250° West 451 519 38,000  Level FlightAware
11:56AM 38.4130 -81.3460 250° West 452 520 38,000  Level FlightAware
11:56AM 38.3850 -81.4440 250° West 452 520 38,000  Level FlightAware
11:57AM 38.3520 -81.5610 250° West 453 521 38,000  Level FlightAware
11:58AM 38.3279 -81.6428 249° West 453 521 38,000  Level FlightAware ADS-B
11:58AM 38.3016 -81.7348 250° West 454 522 38,000  Level FlightAware ADS-B
11:59AM 38.2785 -81.8143 250° West 452 520 38,000  Level FlightAware ADS-B
12:00PM 38.2340 -81.9690 250° West 450 518 38,000  Level FlightAware
12:00PM 38.2227 -82.0065 249° West 451 519 38,000  Level FlightAware ADS-B
12:01PM 38.2010 -82.0814 250° West 449 517 38,000  Level FlightAware ADS-B
12:01PM 38.1785 -82.1588 250° West 448 516 38,000  Level FlightAware ADS-B
12:02PM 38.1406 -82.2879 250° West 446 513 38,000  Level FlightAware ADS-B
12:03PM 38.1150 -82.3760 250° West 442 509 38,000  Level FlightAware
12:03PM 38.0994 -82.4277 249° West 442 509 38,000  Level FlightAware ADS-B
12:04PM 38.0746 -82.5110 249° West 439 505 38,000  Level FlightAware ADS-B
12:04PM 38.0540 -82.5780 249° West 439 505 38,000  Level FlightAware
12:05PM 38.0210 -82.6890 249° West 442 509 38,000  Level FlightAware
12:05PM 37.9930 -82.7840 250° West 443 510 38,000  Level FlightAware
12:06PM 37.9610 -82.8910 249° West 440 506 38,000  Level FlightAware
12:07PM 37.9398 -82.9623 249° West 441 507 38,000  Level FlightAware ADS-B
12:07PM 37.9157 -83.0425 249° West 440 506 38,000  Level FlightAware ADS-B
12:08PM 37.8934 -83.1163 249° West 439 505 38,000  Level FlightAware ADS-B
12:08PM 37.8668 -83.2036 249° West 438 504 38,000  Level FlightAware ADS-B
12:09PM 37.8447 -83.2758 249° West 438 504 38,000  Level FlightAware ADS-B
12:09PM 37.8225 -83.3481 249° West 437 503 38,000  Level FlightAware ADS-B
12:11PM 37.7490 -83.5876 249° West 438 504 38,000  Level FlightAware ADS-B
12:12PM 37.7153 -83.6964 249° West 444 511 38,000  Level FlightAware ADS-B
12:13PM 37.6807 -83.8078 249° West 445 512 38,000  Level FlightAware ADS-B
12:13PM 37.6590 -83.8710 247° West 443 510 38,000  Level FlightAware
12:14PM 37.6140 -84.0200 249° West 449 517 38,000  Level FlightAware
12:15PM 37.5790 -84.1330 249° West 450 518 38,000  Level FlightAware
12:15PM 37.5530 -84.2140 248° West 451 519 38,000  Level FlightAware
12:16PM 37.5200 -84.3190 248° West 451 519 38,000  Level FlightAware
12:18PM 37.4224 -84.6266 248° West 454 522 38,000  Level FlightAware ADS-B
12:19PM 37.3870 -84.7368 248° West 462 532 38,000  Level FlightAware ADS-B
12:19PM 37.3613 -84.8168 248° West 463 533 38,000  Level FlightAware ADS-B
12:20PM 37.3141 -84.9630 248° West 464 534 38,000  Level FlightAware ADS-B
12:21PM 37.2898 -85.0383 248° West 465 535 38,000  Level FlightAware ADS-B
12:21PM 37.2645 -85.1162 248° West 464 534 38,000  Level FlightAware ADS-B
12:22PM 37.2399 -85.1916 248° West 461 531 38,000  Level FlightAware ADS-B
12:22PM 37.2125 -85.2750 248° West 457 526 38,000  Level FlightAware ADS-B
12:23PM 37.1713 -85.4008 248° West 455 524 38,000  Level FlightAware ADS-B
12:24PM 37.1444 -85.4826 248° West 455 524 38,000  Level FlightAware ADS-B
12:25PM 37.1143 -85.5742 248° West 456 525 38,000  Level FlightAware ADS-B
12:25PM 37.0840 -85.6659 248° West 456 525 38,000  Level FlightAware ADS-B
12:26PM 37.0542 -85.7558 247° West 456 525 38,000  Level FlightAware ADS-B
12:26PM 37.0226 -85.8505 247° West 454 522 38,000  Level FlightAware ADS-B
12:27PM 36.9968 -85.9276 247° West 454 522 38,000  Level FlightAware ADS-B
12:27PM 36.9719 -86.0020 247° West 452 520 38,000  Level FlightAware ADS-B
12:28PM 36.9476 -86.0742 247° West 451 519 38,000  Level FlightAware ADS-B
12:29PM 36.9191 -86.1588 247° West 449 517 38,000  Level FlightAware ADS-B
12:30PM 36.8729 -86.2957 247° West 446 513 38,000  Level FlightAware ADS-B
12:30PM 36.8481 -86.3687 247° West 445 512 38,000  Level FlightAware ADS-B
12:31PM 36.8093 -86.4829 247° West 443 510 38,000  Level FlightAware ADS-B
12:31PM 36.7845 -86.5554 247° West 441 507 38,000  Level FlightAware ADS-B
12:32PM 36.7602 -86.6264 247° West 441 507 38,000  Level FlightAware ADS-B
12:32PM 36.7321 -86.7083 247° West 441 507 38,000  Level FlightAware ADS-B
12:33PM 36.7070 -86.7819 247° West 441 507 38,000  Level FlightAware ADS-B
12:33PM 36.6825 -86.8528 247° West 442 509 38,000  Level FlightAware ADS-B
12:35PM 36.6290 -87.0070 247° West 441 507 38,000  Level FlightAware
12:35PM 36.5920 -87.1130 247° West 441 507 38,000  Level FlightAware
12:36PM 36.5600 -87.2060 247° West 439 505 38,000  Level FlightAware
12:37PM 36.5280 -87.2970 246° West 437 503 38,000  Level FlightAware
12:37PM 36.4930 -87.3980 247° West 435 501 38,000  Level FlightAware
12:38PM 36.4600 -87.4920 246° West 433 498 38,000  Level FlightAware
12:39PM 36.4280 -87.5820 246° West 433 498 38,000  Level FlightAware
12:40PM 36.3900 -87.6870 246° West 434 499 38,000  Level FlightAware
12:40PM 36.3580 -87.7780 246° West 436 502 38,000  Level FlightAware
12:41PM 36.3230 -87.8770 246° West 437 503 38,000  Level FlightAware
12:42PM 36.2890 -87.9710 246° West 437 503 38,000  Level FlightAware
12:42PM 36.2620 -88.0480 247° West 438 504 38,000  Level FlightAware
12:43PM 36.2210 -88.1620 246° West 440 506 38,000  Level FlightAware
12:44PM 36.1870 -88.2570 246° West 441 507 38,000  Level FlightAware
12:44PM 36.1530 -88.3460 245° Southwest 441 507 38,000  Level FlightAware
12:45PM 36.1047 -88.4764 245° Southwest 440 506 38,000  Level Memphis Center
12:46PM 36.0544 -88.6136 246° West 440 506 38,000  Level Memphis Center
12:47PM 36.0022 -88.7558 246° West 450 518 38,000  Level Memphis Center
12:48PM 35.9497 -88.8956 245° Southwest 450 518 38,000  Level Memphis Center
12:49PM 35.8972 -89.0372 245° Southwest 450 518 38,000  Level Memphis Center
12:50PM 35.8444 -89.1789 245° Southwest 450 518 38,000  Level Memphis Center
12:51PM 35.7894 -89.3206 244° Southwest 450 518 38,000  Level Memphis Center
12:52PM 35.7383 -89.4619 246° West 455 524 38,000  Level Memphis Center
12:53PM 35.6808 -89.6158 245° Southwest 455 524 38,000  Level Memphis Center
12:54PM 35.6358 -89.7542 248° West 444 511 38,000  Level Memphis Center
12:55PM 35.5842 -89.8900 245° Southwest 444 511 38,000  Level Memphis Center
12:56PM 35.5740 -89.8855 245° Southwest  Level FlightAware Approximate
12:56PM 35.5347 -90.0278 246° West 444 511 38,000  Level Memphis Center
12:57PM 35.4808 -90.1658 244° Southwest 444 511 38,000  Level Memphis Center
12:58PM 35.4267 -90.3036 244° Southwest 449 517 38,000  Level Memphis Center
12:59PM 35.3744 -90.4358 244° Southwest 444 511 38,000  Level Memphis Center
01:01PM 35.3205 -90.5707 244° Southwest  Level FlightAware Approximate
01:01PM 35.2781 -90.7056 244° Southwest 444 511 38,000  Level Memphis Center
01:02PM 35.2339 -90.8450 249° West 434 499 38,000  Level Memphis Center
01:03PM 35.1894 -90.9822 248° West 434 499 38,000  Level Memphis Center
01:04PM 35.1428 -91.1239 248° West 434 499 38,000  Level Memphis Center
01:05PM 35.0981 -91.2606 248° West 434 499 38,000  Level Memphis Center
01:06PM 35.0511 -91.3944 247° West 434 499 38,000  Level Memphis Center
01:07PM 35.0125 -91.5108 248° West 429 494 38,000  Level Memphis Center
01:08PM 34.9675 -91.6419 247° West 429 494 38,000  Level Memphis Center
01:09PM 34.9242 -91.7703 248° West 429 494 38,000  Level Memphis Center
01:10PM 34.8789 -91.9014 247° West 424 488 38,000  Level Memphis Center
01:11PM 34.8356 -92.0344 248° West 424 488 38,000  Level Memphis Center
01:12PM 34.7878 -92.1650 246° West 419 482 38,000  Level Memphis Center
01:13PM 34.7442 -92.2956 248° West 425 489 38,000  Level Memphis Center
01:14PM 34.6958 -92.4383 248° West 425 489 38,000  Level Memphis Center
01:20PM 34.4530 -93.1400 248° West 412 474 38,000  Level FlightAware
01:21PM 34.4210 -93.2340 248° West 411 473 38,000  Level FlightAware
01:21PM 34.3950 -93.3060 246° West 411 473 38,000  Level FlightAware
01:22PM 34.3630 -93.3980 247° West 409 471 38,000  Level FlightAware
01:22PM 34.3370 -93.4720 247° West 411 473 38,000  Level FlightAware
01:23PM 34.3130 -93.5360 246° West 411 473 38,000  Level FlightAware
01:24PM 34.2930 -93.5900 246° West 411 473 38,000  Level FlightAware
01:24PM 34.2600 -93.6790 246° West 411 473 38,000  Level FlightAware
01:25PM 34.2340 -93.7510 246° West 411 473 38,000  Level FlightAware
01:26PM 34.2010 -93.8400 246° West 411 473 38,000  Level FlightAware
01:26PM 34.1810 -93.8930 245° Southwest 411 473 38,000  Level FlightAware
01:27PM 34.1620 -93.9470 247° West 411 473 38,000  Level FlightAware
01:28PM 34.1350 -94.0180 245° Southwest 411 473 38,000  Level FlightAware
01:28PM 34.1030 -94.1070 247° West 411 473 38,000  Level FlightAware
01:29PM 34.0760 -94.1790 246° West 411 473 38,000 -1,320 Level FlightAware
01:30PM 34.0700 -94.4010 268° West 395 455 36,200 -1,800 Descending FlightAware
01:30PM 34.0400 -94.4910 248° West 398 458 35,500 -2,280 Descending FlightAware
01:31PM 34.0110 -94.5790 248° West 419 482 33,200 -1,800 Descending FlightAware
01:32PM 33.9830 -94.6650 249° West 419 482 33,000 -180 Descending FlightAware
01:33PM 33.9580 -94.7390 248° West 419 482 33,000  Level FlightAware
01:33PM 33.9330 -94.8120 248° West 419 482 33,000  Level FlightAware
01:34PM 33.9090 -94.8860 249° West 419 482 33,000  Level FlightAware
01:35PM 33.8840 -94.9590 248° West 419 482 33,000 -2,820 Level FlightAware
01:35PM 33.8330 -95.1210 249° West 439 505 29,300 -3,240 Descending FlightAware
01:36PM 33.8010 -95.2180 248° West 441 507 28,700 -1,020 Descending FlightAware
01:37PM 33.7710 -95.3060 248° West 439 505 28,000 -1,080 Descending FlightAware
01:37PM 33.7400 -95.3990 248° West 434 499 27,300 -1,080 Descending FlightAware
01:38PM 33.7070 -95.4990 248° West 425 489 26,500 -1,020 Descending FlightAware
01:39PM 33.6820 -95.5720 248° West 421 484 26,000 -1,440 Descending FlightAware
01:39PM 33.6520 -95.6600 248° West 407 468 24,700 -1,920 Descending FlightAware
01:40PM 33.6250 -95.7400 248° West 377 434 23,500 -2,400 Descending FlightAware
01:41PM 33.5960 -95.8250 248° West 365 420 21,300 -2,880 Descending FlightAware
01:41PM 33.5710 -95.9000 248° West 351 404 19,500 -2,280 Descending FlightAware
01:42PM 33.5450 -95.9760 248° West 332 382 18,100 -1,980 Descending FlightAware
01:43PM 33.5190 -96.0530 248° West 314 361 16,600 -1,620 Descending FlightAware
01:44PM 33.4960 -96.1190 247° West 285 328 15,700 -1,080 Descending FlightAware
01:44PM 33.4760 -96.1760 247° West 273 314 15,100 -720 Descending FlightAware
01:45PM 33.4540 -96.2400 248° West 273 314 14,700 -1,380 Descending FlightAware
01:46PM 33.4350 -96.2940 247° West 276 318 13,200 -2,400 Descending FlightAware
01:46PM 33.4130 -96.3610 249° West 284 327 11,300 -1,740 Descending FlightAware
01:47PM 33.3880 -96.4240 245° Southwest 276 318 10,600 -1,200 Descending FlightAware
01:48PM 33.3630 -96.4760 240° Southwest 270 311 9,600 -1,560 Descending FlightAware
01:48PM 33.3520 -96.4950 235° Southwest 269 310 9,200 -1,500 Descending FlightAware
01:48PM 33.3350 -96.5240 235° Southwest 268 308 8,600 -1,440 Descending FlightAware
01:49PM 33.3140 -96.5600 235° Southwest 267 307 7,900 -1,440 Descending FlightAware
01:49PM 33.2960 -96.5910 235° Southwest 265 305 7,300 -1,380 Descending FlightAware
01:50PM 33.2850 -96.6100 235° Southwest 262 302 7,000 -1,380 Descending FlightAware
01:50PM 33.2650 -96.6450 236° Southwest 257 296 6,300 -1,380 Descending FlightAware
01:50PM 33.2560 -96.6600 234° Southwest 257 296 6,000 -1,200 Descending FlightAware
01:51PM 33.2430 -96.6820 235° Southwest 254 292 5,600 -1,020 Descending FlightAware
01:51PM 33.2190 -96.7240 236° Southwest 244 281 5,100 -600 Descending FlightAware
01:52PM 33.2080 -96.7420 234° Southwest 242 278 5,100  Level FlightAware
01:52PM 33.1920 -96.7690 235° Southwest 240 276 5,100  Level FlightAware
01:52PM 33.1740 -96.7990 234° Southwest 229 264 5,100  Level FlightAware
01:53PM 33.1590 -96.8250 235° Southwest 223 257 5,100 60 Level FlightAware
01:53PM 33.1410 -96.8560 235° Southwest 217 250 5,200 -120 Climbing FlightAware
01:54PM 33.1240 -96.8840 234° Southwest 198 228 5,000 -780 Descending FlightAware
01:54PM 33.1120 -96.9060 237° Southwest 187 215 4,500 -1,140 Descending FlightAware
01:55PM 33.0970 -96.9310 234° Southwest 173 199 4,000 -1,320 Descending FlightAware
01:55PM 33.0860 -96.9500 235° Southwest 175 201 3,300 -1,440 Descending FlightAware
01:56PM 33.0720 -96.9720 233° Southwest 178 205 2,700 -1,080 Descending FlightAware
01:56PM 33.0620 -96.9810 217° Southwest 161 185 2,500 -540 Descending FlightAware
01:56PM 33.0490 -96.9910 213° Southwest 155 178 2,400 -120 Descending FlightAware
01:57PM 33.0310 -97.0050 213° Southwest 155 178 2,400  Level FlightAware
01:57PM 33.0160 -97.0170 214° Southwest 162 186 2,400 -120 Level FlightAware
01:58PM 32.9980 -97.0250 200° South 153 176 2,300 -540 Descending FlightAware
01:58PM 32.9760 -97.0260 182° South 135 155 1,900 -840 Descending FlightAware
01:59PM 32.9650 -97.0260 180° South 128 147 1,600 -420 Descending FlightAware
01:59PM 32.9510 -97.0260 180° South 128 147 1,600  Level FlightAware